createdAt,value
2022-09-26T00:00:23.781Z,8.70
2022-09-26T00:01:23.287Z,8.50
2022-09-26T00:02:23.332Z,8.30
2022-09-26T00:03:23.139Z,8.30
2022-09-26T00:04:24.629Z,8.90
2022-09-26T00:05:23.129Z,10.30
2022-09-26T00:06:23.114Z,9.10
2022-09-26T00:07:23.181Z,8.60
2022-09-26T00:08:23.148Z,7.60
2022-09-26T00:09:23.089Z,7.00
2022-09-26T00:10:23.081Z,7.30
2022-09-26T00:11:23.088Z,6.30
2022-09-26T00:12:23.068Z,8.10
2022-09-26T00:13:23.062Z,8.20
2022-09-26T00:14:23.031Z,8.00
2022-09-26T00:15:23.026Z,7.90
2022-09-26T00:16:23.164Z,8.90
2022-09-26T00:17:23.081Z,11.70
2022-09-26T00:18:23.003Z,9.60
2022-09-26T00:19:23.039Z,9.30
2022-09-26T00:20:22.998Z,15.90
2022-09-26T00:21:22.984Z,15.10
2022-09-26T00:22:22.974Z,17.70
2022-09-26T00:23:22.953Z,12.00
2022-09-26T00:24:22.952Z,14.80
2022-09-26T00:25:22.953Z,16.00
2022-09-26T00:26:22.942Z,9.90
2022-09-26T00:27:22.964Z,15.70
2022-09-26T00:28:22.918Z,16.30
2022-09-26T00:29:22.907Z,14.60
2022-09-26T00:30:22.957Z,16.90
2022-09-26T00:31:23.024Z,14.50
2022-09-26T00:32:22.880Z,29.00
2022-09-26T00:33:22.900Z,21.50
2022-09-26T00:34:22.863Z,17.80
2022-09-26T00:35:22.856Z,25.10
2022-09-26T00:36:29.763Z,21.10
2022-09-26T00:37:23.843Z,17.40
2022-09-26T00:38:22.828Z,21.70
2022-09-26T00:39:22.819Z,22.60
2022-09-26T00:40:22.830Z,22.30
2022-09-26T00:41:22.799Z,22.20
2022-09-26T00:42:22.822Z,18.60
2022-09-26T00:43:22.800Z,18.50
2022-09-26T00:44:22.780Z,18.40
2022-09-26T00:45:22.771Z,21.70
2022-09-26T00:46:22.814Z,20.40
2022-09-26T00:47:22.852Z,19.90
2022-09-26T00:48:22.769Z,24.20
2022-09-26T00:49:22.735Z,15.80
2022-09-26T00:50:22.723Z,20.10
2022-09-26T00:51:22.712Z,21.30
2022-09-26T00:52:22.716Z,14.30
2022-09-26T00:53:22.718Z,13.80
2022-09-26T00:54:22.764Z,14.30
2022-09-26T00:55:22.676Z,16.20
2022-09-26T00:56:22.673Z,20.20
2022-09-26T00:57:22.661Z,19.70
2022-09-26T00:58:22.663Z,17.60
2022-09-26T00:59:22.667Z,12.20
2022-09-26T01:00:22.665Z,13.10
2022-09-26T01:01:22.730Z,15.80
2022-09-26T01:02:22.716Z,16.50
2022-09-26T01:03:22.611Z,22.80
2022-09-26T01:04:22.628Z,19.60
2022-09-26T01:05:22.601Z,19.80
2022-09-26T01:06:22.615Z,19.10
2022-09-26T01:07:22.573Z,19.20
2022-09-26T01:08:22.559Z,18.10
2022-09-26T01:09:22.559Z,25.20
2022-09-26T01:10:22.537Z,22.80
2022-09-26T01:11:22.567Z,20.80
2022-09-26T01:12:22.523Z,24.30
2022-09-26T01:13:22.520Z,23.70
2022-09-26T01:14:22.509Z,16.50
2022-09-26T01:15:22.510Z,17.20
2022-09-26T01:16:22.575Z,18.80
2022-09-26T01:17:22.514Z,18.30
2022-09-26T01:18:22.507Z,23.00
2022-09-26T01:19:22.492Z,23.20
2022-09-26T01:20:22.465Z,23.00
2022-09-26T01:21:22.456Z,22.30
2022-09-26T01:22:22.444Z,20.90
2022-09-26T01:23:22.462Z,19.80
2022-09-26T01:24:22.424Z,18.70
2022-09-26T01:25:22.416Z,22.10
2022-09-26T01:26:22.407Z,23.10
2022-09-26T01:27:22.404Z,17.40
2022-09-26T01:28:22.395Z,16.20
2022-09-26T01:29:22.857Z,25.70
2022-09-26T01:30:22.384Z,21.00
2022-09-26T01:31:22.444Z,18.60
2022-09-26T01:32:22.378Z,22.20
2022-09-26T01:33:22.346Z,20.00
2022-09-26T01:34:22.331Z,13.60
2022-09-26T01:35:22.348Z,15.50
2022-09-26T01:36:22.314Z,14.10
2022-09-26T01:37:22.326Z,14.90
2022-09-26T01:38:22.381Z,24.40
2022-09-26T01:39:22.293Z,21.40
2022-09-26T01:40:22.411Z,16.60
2022-09-26T01:41:22.297Z,15.90
2022-09-26T01:42:22.278Z,17.10
2022-09-26T01:43:22.308Z,17.70
2022-09-26T01:44:22.253Z,20.00
2022-09-26T01:45:22.260Z,15.50
2022-09-26T01:46:22.293Z,14.90
2022-09-26T01:47:22.253Z,16.90
2022-09-26T01:48:22.209Z,16.40
2022-09-26T01:49:22.213Z,15.70
2022-09-26T01:50:22.294Z,18.50
2022-09-26T01:51:22.184Z,15.40
2022-09-26T01:52:22.210Z,17.70
2022-09-26T01:53:22.183Z,20.00
2022-09-26T01:54:22.181Z,17.80
2022-09-26T01:55:22.160Z,18.40
2022-09-26T01:56:22.139Z,16.30
2022-09-26T01:57:22.167Z,20.20
2022-09-26T01:58:22.129Z,17.20
2022-09-26T01:59:22.120Z,15.40
2022-09-26T02:00:22.146Z,18.30
2022-09-26T02:01:22.189Z,20.70
2022-09-26T02:02:22.215Z,18.30
2022-09-26T02:03:22.089Z,17.60
2022-09-26T02:04:22.096Z,13.30
2022-09-26T02:05:22.096Z,14.80
2022-09-26T02:06:22.079Z,11.80
2022-09-26T02:07:22.067Z,9.60
2022-09-26T02:08:22.045Z,12.20
2022-09-26T02:09:22.040Z,12.50
2022-09-26T02:10:22.032Z,16.60
2022-09-26T02:11:22.046Z,12.70
2022-09-26T02:12:22.032Z,13.70
2022-09-26T02:13:22.014Z,10.70
2022-09-26T02:14:22.005Z,12.40
2022-09-26T02:15:21.993Z,12.20
2022-09-26T02:16:22.076Z,11.90
2022-09-26T02:17:21.983Z,11.30
2022-09-26T02:18:21.959Z,13.60
2022-09-26T02:19:21.954Z,13.10
2022-09-26T02:20:21.933Z,13.70
2022-09-26T02:21:21.925Z,10.90
2022-09-26T02:22:21.955Z,13.00
2022-09-26T02:23:21.905Z,11.30
2022-09-26T02:24:21.898Z,14.60
2022-09-26T02:25:21.887Z,13.70
2022-09-26T02:26:21.875Z,13.60
2022-09-26T02:27:21.883Z,11.60
2022-09-26T02:28:21.912Z,16.30
2022-09-26T02:29:21.868Z,12.00
2022-09-26T02:30:21.859Z,12.40
2022-09-26T02:31:21.890Z,13.70
2022-09-26T02:32:21.822Z,11.90
2022-09-26T02:33:21.840Z,12.50
2022-09-26T02:34:21.843Z,12.90
2022-09-26T02:35:21.810Z,16.60
2022-09-26T02:36:21.816Z,12.00
2022-09-26T02:37:21.807Z,11.20
2022-09-26T02:38:21.813Z,13.20
2022-09-26T02:39:21.828Z,14.00
2022-09-26T02:40:21.809Z,16.80
2022-09-26T02:41:21.762Z,12.90
2022-09-26T02:42:21.750Z,10.70
2022-09-26T02:43:21.731Z,12.40
2022-09-26T02:44:21.743Z,10.90
2022-09-26T02:45:21.750Z,11.40
2022-09-26T02:46:21.789Z,14.10
2022-09-26T02:47:21.696Z,12.10
2022-09-26T02:48:21.725Z,10.00
2022-09-26T02:49:21.678Z,12.00
2022-09-26T02:50:21.695Z,13.30
2022-09-26T02:51:22.337Z,11.60
2022-09-26T02:52:21.754Z,13.10
2022-09-26T02:53:21.647Z,13.30
2022-09-26T02:54:21.655Z,12.10
2022-09-26T02:55:21.649Z,12.10
2022-09-26T02:56:21.651Z,15.00
2022-09-26T02:57:21.623Z,12.80
2022-09-26T02:58:21.610Z,14.30
2022-09-26T02:59:21.604Z,15.00
2022-09-26T03:00:21.594Z,15.30
2022-09-26T03:01:21.655Z,15.90
2022-09-26T03:02:21.594Z,16.10
2022-09-26T03:03:21.674Z,17.20
2022-09-26T03:04:21.620Z,18.10
2022-09-26T03:05:21.559Z,16.10
2022-09-26T03:06:21.562Z,17.90
2022-09-26T03:07:21.538Z,18.40
2022-09-26T03:08:21.550Z,17.50
2022-09-26T03:09:21.524Z,16.30
2022-09-26T03:10:21.515Z,19.20
2022-09-26T03:11:21.510Z,17.00
2022-09-26T03:12:21.504Z,20.70
2022-09-26T03:13:21.504Z,22.20
2022-09-26T03:14:21.573Z,19.40
2022-09-26T03:15:21.465Z,17.40
2022-09-26T03:16:21.517Z,21.50
2022-09-26T03:17:21.452Z,21.70
2022-09-26T03:18:21.445Z,21.10
2022-09-26T03:19:21.445Z,18.40
2022-09-26T03:20:21.451Z,20.00
2022-09-26T03:21:21.428Z,19.90
2022-09-26T03:22:21.425Z,23.80
2022-09-26T03:23:21.423Z,23.60
2022-09-26T03:24:21.401Z,28.70
2022-09-26T03:25:21.398Z,27.40
2022-09-26T03:26:21.854Z,20.50
2022-09-26T03:27:21.384Z,19.50
2022-09-26T03:28:21.369Z,27.90
2022-09-26T03:29:21.353Z,21.10
2022-09-26T03:30:21.355Z,19.50
2022-09-26T03:31:21.410Z,24.90
2022-09-26T03:32:21.325Z,26.40
2022-09-26T03:33:21.329Z,27.40
2022-09-26T03:34:21.321Z,22.90
2022-09-26T03:35:21.311Z,26.20
2022-09-26T03:36:21.311Z,26.70
2022-09-26T03:37:21.357Z,25.90
2022-09-26T03:38:21.317Z,22.80
2022-09-26T03:39:21.284Z,35.40
2022-09-26T03:40:21.305Z,24.30
2022-09-26T03:41:21.255Z,27.00
2022-09-26T03:42:21.246Z,31.50
2022-09-26T03:43:21.261Z,30.40
2022-09-26T03:44:21.229Z,26.00
2022-09-26T03:45:21.293Z,26.40
2022-09-26T03:46:21.223Z,25.70
2022-09-26T03:47:21.219Z,33.40
2022-09-26T03:48:21.201Z,30.40
2022-09-26T03:49:21.216Z,35.30
2022-09-26T03:50:21.187Z,29.10
2022-09-26T03:51:21.183Z,37.20
2022-09-26T03:52:21.173Z,30.40
2022-09-26T03:53:21.159Z,36.30
2022-09-26T03:54:21.144Z,34.90
2022-09-26T03:55:21.152Z,25.60
2022-09-26T03:56:21.128Z,30.10
2022-09-26T03:57:21.124Z,29.70
2022-09-26T03:58:21.129Z,27.30
2022-09-26T03:59:21.108Z,32.60
2022-09-26T04:00:21.099Z,26.00
2022-09-26T04:01:21.222Z,24.80
2022-09-26T04:02:21.206Z,25.30
2022-09-26T04:03:21.083Z,26.20
2022-09-26T04:04:21.072Z,26.20
2022-09-26T04:05:21.063Z,23.20
2022-09-26T04:06:21.218Z,20.00
2022-09-26T04:07:21.067Z,25.90
2022-09-26T04:08:21.042Z,21.80
2022-09-26T04:09:21.250Z,21.80
2022-09-26T04:10:21.028Z,24.60
2022-09-26T04:11:21.004Z,27.50
2022-09-26T04:12:21.000Z,29.80
2022-09-26T04:13:49.450Z,29.30
2022-09-26T04:14:21.976Z,24.40
2022-09-26T04:15:20.977Z,29.70
2022-09-26T04:16:21.050Z,23.40
2022-09-26T04:17:21.241Z,26.20
2022-09-26T04:18:20.954Z,25.80
2022-09-26T04:19:20.985Z,27.20
2022-09-26T04:20:20.950Z,28.20
2022-09-26T04:21:20.944Z,26.30
2022-09-26T04:22:20.961Z,25.00
2022-09-26T04:23:20.919Z,26.80
2022-09-26T04:24:20.914Z,30.20
2022-09-26T04:25:20.924Z,20.70
2022-09-26T04:26:23.724Z,23.60
2022-09-26T04:27:20.878Z,24.70
2022-09-26T04:28:20.869Z,23.20
2022-09-26T04:29:20.859Z,21.50
2022-09-26T04:30:20.860Z,19.90
2022-09-26T04:31:20.950Z,27.70
2022-09-26T04:32:20.876Z,24.70
2022-09-26T04:33:20.847Z,21.80
2022-09-26T04:34:26.258Z,24.30
2022-09-26T04:35:21.825Z,20.10
2022-09-26T04:36:20.819Z,21.40
2022-09-26T04:37:20.832Z,23.60
2022-09-26T04:38:21.337Z,25.40
2022-09-26T04:39:20.779Z,23.70
2022-09-26T04:40:20.839Z,19.80
2022-09-26T04:41:20.766Z,18.20
2022-09-26T04:42:20.764Z,22.90
2022-09-26T04:43:20.812Z,22.80
2022-09-26T04:44:20.786Z,19.30
2022-09-26T04:45:20.737Z,20.20
2022-09-26T04:46:22.343Z,21.80
2022-09-26T04:47:20.715Z,20.20
2022-09-26T04:48:20.706Z,21.20
2022-09-26T04:49:20.721Z,22.00
2022-09-26T04:50:20.730Z,22.50
2022-09-26T04:51:20.681Z,26.00
2022-09-26T04:52:20.682Z,19.00
2022-09-26T04:53:20.671Z,19.90
2022-09-26T04:54:20.704Z,21.50
2022-09-26T04:55:20.695Z,20.90
2022-09-26T04:56:20.633Z,20.80
2022-09-26T04:57:20.637Z,20.50
2022-09-26T04:58:20.622Z,19.60
2022-09-26T04:59:20.609Z,21.80
2022-09-26T05:00:20.626Z,21.70
2022-09-26T05:01:20.674Z,21.70
2022-09-26T05:02:20.641Z,17.40
2022-09-26T05:03:20.580Z,19.90
2022-09-26T05:04:25.214Z,21.10
2022-09-26T05:05:21.591Z,22.90
2022-09-26T05:06:20.571Z,20.60
2022-09-26T05:07:20.555Z,21.70
2022-09-26T05:08:20.530Z,22.30
2022-09-26T05:09:20.528Z,22.90
2022-09-26T05:10:20.524Z,26.50
2022-09-26T05:11:20.520Z,25.00
2022-09-26T05:12:20.729Z,24.50
2022-09-26T05:13:20.491Z,25.50
2022-09-26T05:14:20.484Z,22.70
2022-09-26T05:15:20.480Z,26.00
2022-09-26T05:16:20.518Z,23.50
2022-09-26T05:17:20.500Z,30.20
2022-09-26T05:18:20.483Z,31.20
2022-09-26T05:20:32.696Z,26.10
2022-09-26T05:21:32.734Z,25.90
2022-09-26T05:22:32.702Z,27.70
2022-09-26T05:23:32.700Z,26.50
2022-09-26T05:24:32.683Z,28.50
2022-09-26T05:25:32.750Z,25.40
2022-09-26T05:26:32.684Z,22.20
2022-09-26T05:27:32.693Z,18.70
2022-09-26T05:28:32.677Z,19.40
2022-09-26T05:29:32.651Z,18.50
2022-09-26T05:30:32.660Z,17.90
2022-09-26T05:31:32.795Z,17.30
2022-09-26T05:32:32.667Z,15.50
2022-09-26T05:33:32.686Z,15.80
2022-09-26T05:34:32.623Z,14.70
2022-09-26T05:35:32.605Z,14.00
2022-09-26T05:36:32.604Z,15.30
2022-09-26T05:37:32.593Z,15.00
2022-09-26T05:38:32.671Z,14.40
2022-09-26T05:39:32.611Z,14.70
2022-09-26T05:40:32.626Z,15.10
2022-09-26T05:41:32.567Z,14.60
2022-09-26T05:42:32.595Z,14.70
2022-09-26T05:43:32.563Z,16.10
2022-09-26T05:44:32.557Z,16.50
2022-09-26T05:45:32.524Z,17.20
2022-09-26T05:46:32.614Z,18.60
2022-09-26T05:47:32.539Z,19.50
2022-09-26T05:48:32.507Z,19.30
2022-09-26T05:49:32.480Z,20.80
2022-09-26T05:50:32.531Z,20.40
2022-09-26T05:51:32.470Z,22.00
2022-09-26T05:52:32.468Z,20.60
2022-09-26T05:53:32.477Z,20.90
2022-09-26T05:54:32.458Z,20.80
2022-09-26T05:55:32.459Z,22.50
2022-09-26T05:56:32.486Z,20.70
2022-09-26T05:57:32.448Z,19.50
2022-09-26T05:58:32.489Z,19.00
2022-09-26T05:59:33.060Z,20.10
2022-09-26T06:00:32.435Z,22.10
2022-09-26T06:01:32.444Z,20.50
2022-09-26T06:02:32.474Z,18.90
2022-09-26T06:03:32.380Z,20.70
2022-09-26T06:04:32.396Z,20.10
2022-09-26T06:05:32.360Z,20.00
2022-09-26T06:06:32.392Z,20.50
2022-09-26T06:07:32.380Z,19.60
2022-09-26T06:08:32.357Z,20.00
2022-09-26T06:09:32.340Z,20.00
2022-09-26T06:10:32.377Z,19.70
2022-09-26T06:11:32.351Z,20.20
2022-09-26T06:12:32.502Z,19.70
2022-09-26T06:13:32.323Z,20.00
2022-09-26T06:14:32.294Z,20.10
2022-09-26T06:15:32.282Z,19.40
2022-09-26T06:16:32.342Z,19.40
2022-09-26T06:17:32.290Z,19.00
2022-09-26T06:18:32.279Z,20.30
2022-09-26T06:19:32.245Z,20.20
2022-09-26T06:20:32.245Z,18.50
2022-09-26T06:21:32.235Z,20.10
2022-09-26T06:22:32.361Z,20.00
2022-09-26T06:23:32.223Z,19.30
2022-09-26T06:24:32.289Z,19.30
2022-09-26T06:25:32.203Z,20.90
2022-09-26T06:26:32.231Z,19.60
2022-09-26T06:27:33.101Z,19.00
2022-09-26T06:28:32.175Z,20.90
2022-09-26T06:29:32.163Z,21.40
2022-09-26T06:30:32.186Z,19.10
2022-09-26T06:31:32.195Z,18.40
2022-09-26T06:32:32.142Z,18.80
2022-09-26T06:33:33.511Z,17.10
2022-09-26T06:34:32.155Z,19.10
2022-09-26T06:35:32.118Z,19.60
2022-09-26T06:36:32.160Z,19.80
2022-09-26T06:37:32.150Z,20.10
2022-09-26T06:38:32.120Z,20.70
2022-09-26T06:39:32.081Z,20.70
2022-09-26T06:40:32.159Z,21.80
2022-09-26T06:41:32.200Z,22.90
2022-09-26T06:42:32.071Z,21.60
2022-09-26T06:43:32.057Z,22.40
2022-09-26T06:44:32.040Z,22.20
2022-09-26T06:45:32.042Z,22.70
2022-09-26T06:46:32.092Z,22.30
2022-09-26T06:47:32.052Z,21.80
2022-09-26T06:48:32.160Z,22.50
2022-09-26T06:49:32.003Z,23.60
2022-09-26T06:50:31.993Z,21.30
2022-09-26T06:51:32.007Z,23.10
2022-09-26T06:52:31.979Z,23.60
2022-09-26T06:53:31.991Z,21.90
2022-09-26T06:54:31.989Z,23.50
2022-09-26T06:55:31.957Z,23.40
2022-09-26T06:56:31.976Z,23.30
2022-09-26T06:57:32.008Z,22.10
2022-09-26T06:58:31.951Z,24.70
2022-09-26T06:59:31.933Z,24.90
2022-09-26T07:00:31.982Z,24.80
2022-09-26T07:01:32.011Z,24.50
2022-09-26T07:02:31.899Z,26.50
2022-09-26T07:03:31.881Z,23.60
2022-09-26T07:04:31.898Z,25.90
2022-09-26T07:05:31.859Z,24.80
2022-09-26T07:06:31.857Z,24.70
2022-09-26T07:07:31.847Z,24.90
2022-09-26T07:09:00.526Z,29.80
2022-09-26T07:09:32.906Z,28.20
2022-09-26T07:10:31.832Z,26.40
2022-09-26T07:11:41.964Z,27.00
2022-09-26T07:12:32.814Z,25.50
2022-09-26T07:13:31.802Z,23.40
2022-09-26T07:14:31.788Z,25.80
2022-09-26T07:15:31.823Z,24.90
2022-09-26T07:16:32.033Z,24.70
2022-09-26T07:17:31.764Z,24.90
2022-09-26T07:18:31.751Z,25.90
2022-09-26T07:19:31.749Z,26.20
2022-09-26T07:20:31.741Z,23.60
2022-09-26T07:21:31.751Z,24.40
2022-09-26T07:22:31.731Z,25.00
2022-09-26T07:23:31.753Z,23.40
2022-09-26T07:24:31.709Z,23.40
2022-09-26T07:25:31.846Z,23.30
2022-09-26T07:26:31.695Z,24.00
2022-09-26T07:27:31.704Z,23.80
2022-09-26T07:28:31.687Z,24.80
2022-09-26T07:29:31.735Z,23.40
2022-09-26T07:30:31.774Z,24.10
2022-09-26T07:31:31.710Z,24.10
2022-09-26T07:32:31.646Z,23.40
2022-09-26T07:33:31.636Z,27.00
2022-09-26T07:34:31.630Z,27.60
2022-09-26T07:35:31.618Z,28.20
2022-09-26T07:36:31.622Z,31.80
2022-09-26T07:37:31.609Z,33.10
2022-09-26T07:38:31.587Z,26.30
2022-09-26T07:39:31.584Z,25.80
2022-09-26T07:40:31.645Z,27.10
2022-09-26T07:41:31.560Z,24.10
2022-09-26T07:42:31.657Z,26.80
2022-09-26T07:44:04.620Z,23.20
2022-09-26T07:45:32.702Z,23.00
2022-09-26T07:46:31.664Z,24.50
2022-09-26T07:47:31.512Z,22.50
2022-09-26T07:48:31.503Z,20.30
2022-09-26T07:49:31.565Z,20.60
2022-09-26T07:50:31.499Z,21.80
2022-09-26T07:51:31.499Z,32.30
2022-09-26T07:52:31.501Z,24.60
2022-09-26T07:53:31.471Z,20.60
2022-09-26T07:54:32.973Z,19.50
2022-09-26T07:55:31.482Z,20.20
2022-09-26T07:56:31.453Z,19.40
2022-09-26T07:57:31.466Z,18.70
2022-09-26T07:58:31.441Z,18.10
2022-09-26T07:59:31.415Z,18.60
2022-09-26T08:00:31.417Z,18.00
2022-09-26T08:01:31.479Z,18.50
2022-09-26T08:02:31.532Z,18.40
2022-09-26T08:03:31.443Z,16.80
2022-09-26T08:04:31.400Z,17.00
2022-09-26T08:05:31.443Z,17.00
2022-09-26T08:06:31.370Z,16.40
2022-09-26T08:07:31.466Z,15.50
2022-09-26T08:08:31.365Z,15.10
2022-09-26T08:09:31.458Z,15.10
2022-09-26T08:10:31.342Z,15.00
2022-09-26T08:11:31.396Z,14.90
2022-09-26T08:12:31.318Z,14.70
2022-09-26T08:13:31.312Z,13.90
2022-09-26T08:14:31.339Z,13.70
2022-09-26T08:15:31.293Z,14.40
2022-09-26T08:16:31.339Z,14.00
2022-09-26T08:17:31.326Z,13.70
2022-09-26T08:18:31.272Z,12.70
2022-09-26T08:19:31.284Z,12.50
2022-09-26T08:20:32.313Z,12.40
2022-09-26T08:21:31.261Z,12.20
2022-09-26T08:22:31.237Z,12.60
2022-09-26T08:23:31.238Z,11.50
2022-09-26T08:24:31.234Z,12.50
2022-09-26T08:25:31.245Z,12.00
2022-09-26T08:26:31.200Z,11.70
2022-09-26T08:27:31.203Z,11.70
2022-09-26T08:28:31.183Z,11.60
2022-09-26T08:29:31.188Z,10.80
2022-09-26T08:30:31.169Z,9.90
2022-09-26T08:31:31.296Z,9.60
2022-09-26T08:32:31.169Z,9.00
2022-09-26T08:33:31.197Z,9.20
2022-09-26T08:34:31.145Z,8.40
2022-09-26T08:35:31.125Z,8.00
2022-09-26T08:36:31.120Z,10.40
2022-09-26T08:37:31.213Z,10.20
2022-09-26T08:38:31.122Z,8.00
2022-09-26T08:39:33.403Z,8.00
2022-09-26T08:40:31.175Z,7.70
2022-09-26T08:41:31.091Z,7.60
2022-09-26T08:42:31.078Z,10.50
2022-09-26T08:43:31.119Z,7.00
2022-09-26T08:44:31.052Z,10.50
2022-09-26T08:45:31.050Z,6.70
2022-09-26T08:46:31.096Z,8.20
2022-09-26T08:47:31.071Z,6.00
2022-09-26T08:48:31.031Z,6.10
2022-09-26T08:49:31.044Z,5.90
2022-09-26T08:50:31.020Z,5.60
2022-09-26T08:51:31.008Z,5.50
2022-09-26T08:52:30.986Z,5.50
2022-09-26T08:53:31.008Z,5.40
2022-09-26T08:54:31.016Z,5.20
2022-09-26T08:55:30.992Z,5.10
2022-09-26T08:56:30.963Z,5.00
2022-09-26T08:57:30.975Z,5.10
2022-09-26T08:58:30.955Z,5.30
2022-09-26T08:59:31.000Z,5.60
2022-09-26T09:00:30.957Z,5.90
2022-09-26T09:01:31.014Z,5.30
2022-09-26T09:02:30.980Z,5.70
2022-09-26T09:03:30.911Z,6.10
2022-09-26T09:04:30.900Z,6.10
2022-09-26T09:05:30.915Z,6.10
2022-09-26T09:06:30.902Z,6.10
2022-09-26T09:07:30.974Z,5.60
2022-09-26T09:08:30.859Z,5.50
2022-09-26T09:09:30.851Z,5.10
2022-09-26T09:10:30.845Z,5.30
2022-09-26T09:11:30.872Z,5.30
2022-09-26T09:12:32.387Z,5.40
2022-09-26T09:13:30.830Z,5.30
2022-09-26T09:14:30.815Z,5.00
2022-09-26T09:15:30.805Z,4.40
2022-09-26T09:16:30.874Z,4.50
2022-09-26T09:17:30.841Z,4.60
2022-09-26T09:18:30.809Z,4.30
2022-09-26T09:19:30.782Z,4.10
2022-09-26T09:20:30.773Z,4.40
2022-09-26T09:21:30.969Z,4.50
2022-09-26T09:22:30.761Z,4.60
2022-09-26T09:23:30.768Z,4.40
2022-09-26T09:24:30.761Z,4.20
2022-09-26T09:25:30.743Z,4.10
2022-09-26T09:28:31.740Z,4.10
2022-09-26T09:29:30.709Z,4.00
2022-09-26T09:30:30.720Z,3.70
2022-09-26T09:31:30.804Z,3.30
2022-09-26T09:32:30.678Z,3.70
2022-09-26T09:33:30.668Z,3.90
2022-09-26T09:34:30.671Z,3.70
2022-09-26T09:35:30.776Z,3.60
2022-09-26T09:36:30.665Z,3.20
2022-09-26T09:37:30.641Z,3.70
2022-09-26T09:38:30.619Z,3.50
2022-09-26T09:39:30.618Z,3.20
2022-09-26T09:40:30.651Z,3.30
2022-09-26T09:41:30.662Z,3.30
2022-09-26T09:42:30.586Z,3.30
2022-09-26T09:43:30.570Z,3.50
2022-09-26T09:44:30.716Z,3.60
2022-09-26T09:45:30.564Z,3.20
2022-09-26T09:46:30.616Z,3.50
2022-09-26T09:47:30.572Z,3.20
2022-09-26T09:48:30.537Z,3.40
2022-09-26T09:49:30.563Z,3.10
2022-09-26T09:50:30.523Z,2.90
2022-09-26T09:51:33.191Z,2.70
2022-09-26T09:52:31.560Z,2.60
2022-09-26T09:53:30.498Z,2.70
2022-09-26T09:54:30.477Z,2.80
2022-09-26T09:55:30.481Z,2.40
2022-09-26T09:56:30.491Z,2.50
2022-09-26T09:57:30.469Z,2.60
2022-09-26T09:58:30.474Z,2.50
2022-09-26T09:59:30.457Z,2.70
2022-09-26T10:00:30.454Z,2.30
2022-09-26T10:01:30.438Z,2.40
2022-09-26T10:02:30.525Z,2.30
2022-09-26T10:03:30.420Z,2.40
2022-09-26T10:04:30.406Z,2.20
2022-09-26T10:05:30.466Z,2.30
2022-09-26T10:06:44.272Z,2.20
2022-09-26T10:07:31.517Z,2.40
2022-09-26T10:08:30.374Z,2.00
2022-09-26T10:09:39.353Z,2.10
2022-09-26T10:10:31.400Z,2.40
2022-09-26T10:11:30.368Z,2.10
2022-09-26T10:12:30.359Z,2.10
2022-09-26T10:13:30.376Z,1.90
2022-09-26T10:14:30.394Z,1.70
2022-09-26T10:15:30.353Z,1.60
2022-09-26T10:16:30.386Z,1.50
2022-09-26T10:17:30.318Z,1.50
2022-09-26T10:18:30.311Z,1.50
2022-09-26T10:19:30.313Z,1.40
2022-09-26T10:20:30.283Z,1.50
2022-09-26T10:21:30.303Z,1.40
2022-09-26T10:22:30.275Z,1.60
2022-09-26T10:23:30.335Z,1.60
2022-09-26T10:24:30.252Z,1.50
2022-09-26T10:25:30.249Z,1.70
2022-09-26T10:26:31.531Z,1.60
2022-09-26T10:27:30.253Z,1.50
2022-09-26T10:28:30.244Z,1.20
2022-09-26T10:29:30.229Z,1.40
2022-09-26T10:30:30.234Z,1.50
2022-09-26T10:31:30.280Z,1.20
2022-09-26T10:32:30.221Z,1.20
2022-09-26T10:33:30.182Z,1.40
2022-09-26T10:34:30.180Z,1.40
2022-09-26T10:35:30.209Z,1.40
2022-09-26T10:36:30.155Z,1.40
2022-09-26T10:37:30.156Z,1.60
2022-09-26T10:38:30.169Z,1.30
2022-09-26T10:39:30.136Z,2.30
2022-09-26T10:40:30.190Z,1.60
2022-09-26T10:41:30.143Z,1.70
2022-09-26T10:42:32.472Z,1.60
2022-09-26T10:43:30.101Z,1.40
2022-09-26T10:44:30.284Z,1.70
2022-09-26T10:45:30.096Z,1.50
2022-09-26T10:46:30.144Z,1.70
2022-09-26T10:47:30.076Z,1.90
2022-09-26T10:48:30.069Z,1.40
2022-09-26T10:49:30.121Z,1.40
2022-09-26T10:50:30.055Z,1.50
2022-09-26T10:51:30.049Z,1.60
2022-09-26T10:52:30.044Z,1.60
2022-09-26T10:53:30.042Z,1.50
2022-09-26T10:54:30.008Z,1.40
2022-09-26T10:55:30.056Z,1.40
2022-09-26T10:56:30.003Z,1.40
2022-09-26T10:57:30.700Z,1.00
2022-09-26T10:58:30.161Z,1.30
2022-09-26T10:59:30.042Z,1.20
2022-09-26T11:00:29.960Z,1.40
2022-09-26T11:01:30.042Z,1.20
2022-09-26T11:02:29.953Z,1.20
2022-09-26T11:03:29.947Z,1.10
2022-09-26T11:04:29.952Z,1.20
2022-09-26T11:05:29.932Z,1.20
2022-09-26T11:06:29.940Z,1.10
2022-09-26T11:07:29.909Z,1.30
2022-09-26T11:08:29.906Z,1.20
2022-09-26T11:09:29.897Z,1.20
2022-09-26T11:10:29.910Z,1.10
2022-09-26T11:11:29.981Z,1.10
2022-09-26T11:12:29.872Z,1.10
2022-09-26T11:13:29.858Z,1.10
2022-09-26T11:14:29.879Z,1.20
2022-09-26T11:15:29.959Z,1.40
2022-09-26T11:16:33.654Z,1.20
2022-09-26T11:17:30.831Z,1.20
2022-09-26T11:18:29.831Z,1.30
2022-09-26T11:19:29.802Z,1.10
2022-09-26T11:20:37.311Z,1.30
2022-09-26T11:21:29.847Z,1.20
2022-09-26T11:22:29.815Z,1.10
2022-09-26T11:23:29.783Z,1.20
2022-09-26T11:25:58.122Z,1.00
2022-09-26T11:26:56.792Z,1.20
2022-09-26T11:27:56.811Z,1.10
2022-09-26T11:30:23.796Z,1.30
2022-09-26T11:31:23.841Z,1.30
2022-09-26T11:32:23.795Z,2.20
2022-09-26T11:33:44.800Z,2.00
2022-09-26T11:34:23.775Z,1.30
2022-09-26T11:35:23.766Z,1.20
2022-09-26T11:36:23.767Z,1.10
2022-09-26T11:37:24.027Z,1.10
2022-09-26T11:38:23.743Z,1.10
2022-09-26T11:39:23.739Z,1.40
2022-09-26T11:40:23.746Z,1.10
2022-09-26T11:41:23.726Z,1.20
2022-09-26T11:42:23.828Z,1.20
2022-09-26T11:43:23.724Z,1.10
2022-09-26T11:44:23.686Z,1.00
2022-09-26T11:45:23.693Z,1.10
2022-09-26T11:46:23.761Z,1.30
2022-09-26T11:47:23.677Z,1.10
2022-09-26T11:48:23.708Z,1.10
2022-09-26T11:49:23.659Z,1.10
2022-09-26T11:50:23.683Z,1.10
2022-09-26T11:51:23.645Z,1.20
2022-09-26T11:52:23.658Z,1.20
2022-09-26T11:53:23.664Z,1.10
2022-09-26T11:54:23.607Z,1.40
2022-09-26T11:55:23.609Z,1.40
2022-09-26T11:56:23.598Z,1.20
2022-09-26T11:57:23.590Z,1.20
2022-09-26T11:58:23.597Z,1.20
2022-09-26T11:59:23.603Z,1.10
2022-09-26T12:00:23.572Z,1.20
2022-09-26T12:01:23.575Z,1.20
2022-09-26T12:02:23.777Z,0.90
2022-09-26T12:03:23.693Z,1.10
2022-09-26T12:04:23.566Z,1.20
2022-09-26T12:05:26.805Z,1.10
2022-09-26T12:06:23.532Z,1.10
2022-09-26T12:07:23.538Z,1.30
2022-09-26T12:08:23.498Z,1.00
2022-09-26T12:09:23.497Z,1.30
2022-09-26T12:10:23.536Z,1.20
2022-09-26T12:11:23.487Z,1.30
2022-09-26T12:12:23.486Z,1.20
2022-09-26T12:13:23.533Z,1.30
2022-09-26T12:14:23.471Z,1.50
2022-09-26T12:15:23.452Z,1.10
2022-09-26T12:16:23.498Z,1.40
2022-09-26T12:17:23.446Z,1.40
2022-09-26T12:18:23.433Z,1.40
2022-09-26T12:19:23.455Z,1.50
2022-09-26T12:20:23.440Z,1.50
2022-09-26T12:21:23.416Z,1.30
2022-09-26T12:22:23.404Z,1.30
2022-09-26T12:23:23.389Z,1.50
2022-09-26T12:24:23.375Z,1.50
2022-09-26T12:25:23.368Z,1.40
2022-09-26T12:26:23.384Z,1.60
2022-09-26T12:27:23.351Z,1.40
2022-09-26T12:28:23.358Z,1.50
2022-09-26T12:29:23.336Z,1.50
2022-09-26T12:30:23.332Z,1.60
2022-09-26T12:31:23.395Z,1.40
2022-09-26T12:32:23.326Z,1.40
2022-09-26T12:33:23.340Z,1.40
2022-09-26T12:34:23.294Z,1.30
2022-09-26T12:35:23.290Z,1.40
2022-09-26T12:36:23.272Z,1.50
2022-09-26T12:37:23.348Z,1.50
2022-09-26T12:38:23.261Z,1.40
2022-09-26T12:39:23.305Z,1.40
2022-09-26T12:40:23.294Z,1.40
2022-09-26T12:41:23.319Z,1.50
2022-09-26T12:42:23.258Z,1.20
2022-09-26T12:43:23.225Z,1.50
2022-09-26T12:44:23.211Z,1.60
2022-09-26T12:45:23.214Z,1.50
2022-09-26T12:46:23.239Z,1.40
2022-09-26T12:47:23.197Z,1.70
2022-09-26T12:48:23.214Z,1.50
2022-09-26T12:49:23.198Z,1.50
2022-09-26T12:50:23.229Z,1.70
2022-09-26T12:51:23.180Z,1.60
2022-09-26T12:52:27.113Z,1.40
2022-09-26T12:53:23.154Z,1.60
2022-09-26T12:54:23.156Z,2.10
2022-09-26T12:55:23.142Z,1.80
2022-09-26T12:56:23.119Z,1.50
2022-09-26T12:57:23.098Z,1.50
2022-09-26T12:58:23.103Z,1.60
2022-09-26T12:59:23.108Z,1.50
2022-09-26T13:00:23.104Z,1.80
2022-09-26T13:01:23.147Z,1.50
2022-09-26T13:02:23.092Z,1.50
2022-09-26T13:03:23.050Z,2.10
2022-09-26T13:04:23.053Z,1.60
2022-09-26T13:05:23.064Z,2.40
2022-09-26T13:06:23.022Z,1.70
2022-09-26T13:07:23.017Z,1.50
2022-09-26T13:08:23.018Z,1.60
2022-09-26T13:09:23.007Z,2.30